createdAt,value
2019-05-16T00:00:10.068Z,0.00
2019-05-16T00:01:10.048Z,0.00
2019-05-16T00:02:10.248Z,0.00
2019-05-16T00:03:10.032Z,0.00
2019-05-16T00:04:10.250Z,0.00
2019-05-16T00:05:10.012Z,0.00
2019-05-16T00:06:10.044Z,0.00
2019-05-16T00:07:10.227Z,0.00
2019-05-16T00:08:12.385Z,0.00
2019-05-16T00:09:10.039Z,0.00
2019-05-16T00:10:09.996Z,0.00
2019-05-16T00:11:09.946Z,0.00
2019-05-16T00:12:09.977Z,0.00
2019-05-16T00:13:10.185Z,0.00
2019-05-16T00:14:09.929Z,0.00
2019-05-16T00:15:10.038Z,0.00
2019-05-16T00:16:09.895Z,0.00
2019-05-16T00:17:10.112Z,0.00
2019-05-16T00:18:09.860Z,0.00
2019-05-16T00:19:10.057Z,0.00
2019-05-16T00:20:09.893Z,0.00
2019-05-16T00:21:09.958Z,0.00
2019-05-16T00:22:09.959Z,0.00
2019-05-16T00:23:09.804Z,0.00
2019-05-16T00:24:09.974Z,0.00
2019-05-16T00:25:09.844Z,0.00
2019-05-16T00:26:09.904Z,0.00
2019-05-16T00:27:09.833Z,0.00
2019-05-16T00:28:09.899Z,0.00
2019-05-16T00:29:09.745Z,0.00
2019-05-16T00:30:09.935Z,0.00
2019-05-16T00:31:09.724Z,0.00
2019-05-16T00:32:09.888Z,0.00
2019-05-16T00:33:09.830Z,0.00
2019-05-16T00:34:09.744Z,0.00
2019-05-16T00:35:09.845Z,0.00
2019-05-16T00:36:09.673Z,0.00
2019-05-16T00:37:09.858Z,0.00
2019-05-16T00:38:09.702Z,0.00
2019-05-16T00:39:09.785Z,0.00
2019-05-16T00:40:09.634Z,0.00
2019-05-16T00:41:09.782Z,0.00
2019-05-16T00:42:09.605Z,0.00
2019-05-16T00:43:09.876Z,0.00
2019-05-16T00:44:09.639Z,0.00
2019-05-16T00:45:13.381Z,0.00
2019-05-16T00:46:09.611Z,0.00
2019-05-16T00:47:09.733Z,0.00
2019-05-16T00:48:09.548Z,0.00
2019-05-16T00:49:09.595Z,0.00
2019-05-16T00:50:09.585Z,0.00
2019-05-16T00:51:09.653Z,0.00
2019-05-16T00:52:10.109Z,0.00
2019-05-16T00:53:18.204Z,0.00
2019-05-16T00:54:09.543Z,0.00
2019-05-16T00:55:09.533Z,0.00
2019-05-16T00:56:09.480Z,0.00
2019-05-16T00:57:09.583Z,0.00
2019-05-16T00:58:09.450Z,0.00
2019-05-16T00:59:09.596Z,0.00
2019-05-16T01:00:09.687Z,0.00
2019-05-16T01:01:09.410Z,0.00
2019-05-16T01:02:09.527Z,0.00
2019-05-16T01:03:09.383Z,0.00
2019-05-16T01:04:09.604Z,0.00
2019-05-16T01:05:09.426Z,0.00
2019-05-16T01:06:16.582Z,0.00
2019-05-16T01:07:10.373Z,0.00
2019-05-16T01:08:09.448Z,0.00
2019-05-16T01:09:09.336Z,0.00
2019-05-16T01:10:09.535Z,0.00
2019-05-16T01:11:09.484Z,0.00
2019-05-16T01:12:09.318Z,0.00
2019-05-16T01:13:09.520Z,0.00
2019-05-16T01:14:09.300Z,0.00
2019-05-16T01:15:09.414Z,0.00
2019-05-16T01:16:09.271Z,0.00
2019-05-16T01:17:09.468Z,0.00
2019-05-16T01:18:09.254Z,0.00
2019-05-16T01:19:09.353Z,0.00
2019-05-16T01:20:09.215Z,0.00
2019-05-16T01:21:09.407Z,0.00
2019-05-16T01:22:09.183Z,0.00
2019-05-16T01:23:09.363Z,0.00
2019-05-16T01:24:09.169Z,0.00
2019-05-16T01:25:09.775Z,0.00
2019-05-16T01:26:09.168Z,0.00
2019-05-16T01:27:09.268Z,0.00
2019-05-16T01:28:09.187Z,0.00
2019-05-16T01:29:11.718Z,0.00
2019-05-16T01:30:09.393Z,0.00
2019-05-16T01:31:10.206Z,0.00
2019-05-16T01:32:09.102Z,0.00
2019-05-16T01:33:09.137Z,0.00
2019-05-16T01:34:09.062Z,0.00
2019-05-16T01:35:09.244Z,0.00
2019-05-16T01:36:09.186Z,0.00
2019-05-16T01:37:09.141Z,0.00
2019-05-16T01:38:09.111Z,0.00
2019-05-16T01:39:10.169Z,0.00
2019-05-16T01:40:09.010Z,0.00
2019-05-16T01:41:09.170Z,0.00
2019-05-16T01:42:08.973Z,0.00
2019-05-16T01:43:09.141Z,0.00
2019-05-16T01:44:08.956Z,0.00
2019-05-16T01:45:09.083Z,0.00
2019-05-16T01:46:08.952Z,0.00
2019-05-16T01:47:09.143Z,0.00
2019-05-16T01:48:08.986Z,0.00
2019-05-16T01:49:08.923Z,0.00
2019-05-16T01:50:09.020Z,0.00
2019-05-16T01:51:09.022Z,0.00
2019-05-16T01:52:08.866Z,0.00
2019-05-16T01:53:09.094Z,0.00
2019-05-16T01:54:08.893Z,0.00
2019-05-16T01:55:08.851Z,0.00
2019-05-16T01:56:08.957Z,0.00
2019-05-16T01:57:08.809Z,0.00
2019-05-16T01:58:09.021Z,0.00
2019-05-16T01:59:08.978Z,0.00
2019-05-16T02:00:08.815Z,0.00
2019-05-16T02:01:13.413Z,0.00
2019-05-16T02:02:09.901Z,0.00
2019-05-16T02:03:08.805Z,0.00
2019-05-16T02:04:12.184Z,0.00
2019-05-16T02:05:08.758Z,0.00
2019-05-16T02:06:08.951Z,0.00
2019-05-16T02:07:08.825Z,0.00
2019-05-16T02:08:09.059Z,0.00
2019-05-16T02:09:11.553Z,0.00
2019-05-16T02:10:08.782Z,0.00
2019-05-16T02:11:08.685Z,0.00
2019-05-16T02:12:10.811Z,0.00
2019-05-16T02:13:08.755Z,0.00
2019-05-16T02:14:09.491Z,0.00
2019-05-16T02:15:08.786Z,0.00
2019-05-16T02:16:08.633Z,0.00
2019-05-16T02:17:11.254Z,0.00
2019-05-16T02:18:08.594Z,0.00
2019-05-16T02:19:08.767Z,0.00
2019-05-16T02:20:08.949Z,0.00
2019-05-16T02:21:09.711Z,0.00
2019-05-16T02:22:09.051Z,0.00
2019-05-16T02:23:08.563Z,0.00
2019-05-16T02:24:08.973Z,0.00
2019-05-16T02:25:08.574Z,0.00
2019-05-16T02:26:08.697Z,0.00
2019-05-16T02:27:09.506Z,0.00
2019-05-16T02:28:08.654Z,0.00
2019-05-16T02:29:13.261Z,0.00
2019-05-16T02:30:12.416Z,0.00
2019-05-16T02:31:14.853Z,0.00
2019-05-16T02:32:11.552Z,0.00
2019-05-16T02:33:11.406Z,0.00
2019-05-16T02:34:11.535Z,0.00
2019-05-16T02:35:11.517Z,0.00
2019-05-16T02:36:11.024Z,0.00
2019-05-16T02:37:20.166Z,0.00
2019-05-16T02:38:11.369Z,0.00
2019-05-16T02:39:10.940Z,0.00
2019-05-16T02:40:11.628Z,0.00
2019-05-16T02:41:10.601Z,0.00
2019-05-16T02:42:11.535Z,0.00
2019-05-16T02:43:08.356Z,0.00
2019-05-16T02:44:11.812Z,0.00
2019-05-16T02:45:10.949Z,0.00
2019-05-16T02:46:11.647Z,0.00
2019-05-16T02:47:10.814Z,0.00
2019-05-16T02:48:10.944Z,0.00
2019-05-16T02:49:11.354Z,0.00
2019-05-16T02:50:11.779Z,0.00
2019-05-16T02:51:10.981Z,0.00
2019-05-16T02:52:10.834Z,0.00
2019-05-16T02:53:08.313Z,0.00
2019-05-16T02:54:10.954Z,0.00
2019-05-16T02:55:11.320Z,0.00
2019-05-16T02:56:11.854Z,0.00
2019-05-16T02:57:11.280Z,0.00
2019-05-16T02:58:11.481Z,0.00
2019-05-16T02:59:11.668Z,0.00
2019-05-16T03:00:11.779Z,0.00
2019-05-16T03:01:10.815Z,0.00
2019-05-16T03:02:11.162Z,0.00
2019-05-16T03:03:11.624Z,0.00
2019-05-16T03:04:11.055Z,0.00
2019-05-16T03:05:11.577Z,0.00
2019-05-16T03:06:11.163Z,0.00
2019-05-16T03:07:11.437Z,0.00
2019-05-16T03:08:11.990Z,0.00
2019-05-16T03:09:11.214Z,0.00
2019-05-16T03:10:10.913Z,0.00
2019-05-16T03:11:11.614Z,0.00
2019-05-16T03:12:10.764Z,0.00
2019-05-16T03:13:10.897Z,0.00
2019-05-16T03:14:11.002Z,0.00
2019-05-16T03:15:10.733Z,0.00
2019-05-16T03:16:11.846Z,0.00
2019-05-16T03:17:07.993Z,0.00
2019-05-16T03:18:11.225Z,0.00
2019-05-16T03:19:11.158Z,0.00
2019-05-16T03:20:10.855Z,0.00
2019-05-16T03:21:11.060Z,0.00
2019-05-16T03:22:07.947Z,0.00
2019-05-16T03:23:11.024Z,0.00
2019-05-16T03:24:11.007Z,0.00
2019-05-16T03:25:11.096Z,0.00
2019-05-16T03:26:07.884Z,0.00
2019-05-16T03:27:10.624Z,0.00
2019-05-16T03:28:10.888Z,0.00
2019-05-16T03:29:11.079Z,0.00
2019-05-16T03:30:07.846Z,5.62
2019-05-16T03:31:07.967Z,5.62
2019-05-16T03:32:13.272Z,5.62
2019-05-16T03:33:14.298Z,5.62
2019-05-16T03:34:14.928Z,5.62
2019-05-16T03:35:14.452Z,5.62
2019-05-16T03:36:14.316Z,5.62
2019-05-16T03:37:13.585Z,5.62
2019-05-16T03:38:11.816Z,11.25
2019-05-16T03:39:10.504Z,11.25
2019-05-16T03:40:10.844Z,11.25
2019-05-16T03:41:07.729Z,11.25
2019-05-16T03:42:07.820Z,11.25
2019-05-16T03:43:07.697Z,11.25
2019-05-16T03:44:07.690Z,16.88
2019-05-16T03:45:10.535Z,16.88
2019-05-16T03:46:11.506Z,16.88
2019-05-16T03:47:11.015Z,16.88
2019-05-16T03:48:07.651Z,22.50
2019-05-16T03:49:11.041Z,22.50
2019-05-16T03:50:10.842Z,22.50
2019-05-16T03:51:11.036Z,28.12
2019-05-16T03:52:07.610Z,28.12
2019-05-16T03:53:11.351Z,33.75
2019-05-16T03:54:07.594Z,33.75
2019-05-16T03:55:10.721Z,39.38
2019-05-16T03:56:10.826Z,39.38
2019-05-16T03:57:07.562Z,45.00
2019-05-16T03:58:11.327Z,45.00
2019-05-16T03:59:10.719Z,45.00
2019-05-16T04:00:07.563Z,50.62
2019-05-16T04:01:10.792Z,50.62
2019-05-16T04:02:10.811Z,50.62
2019-05-16T04:03:07.543Z,50.62
2019-05-16T04:04:07.533Z,50.62
2019-05-16T04:05:10.877Z,56.25
2019-05-16T04:06:07.527Z,56.25
2019-05-16T04:07:10.805Z,61.88
2019-05-16T04:08:14.727Z,61.88
2019-05-16T04:09:11.868Z,61.88
2019-05-16T04:10:07.452Z,61.88
2019-05-16T04:11:07.467Z,56.25
2019-05-16T04:12:10.602Z,61.88
2019-05-16T04:13:07.379Z,61.88
2019-05-16T04:14:10.647Z,61.88
2019-05-16T04:15:07.370Z,61.88
2019-05-16T04:16:07.393Z,67.50
2019-05-16T04:17:10.766Z,61.88
2019-05-16T04:18:07.334Z,61.88
2019-05-16T04:19:07.409Z,61.88
2019-05-16T04:20:07.320Z,61.88
2019-05-16T04:21:07.327Z,61.88
2019-05-16T04:22:10.261Z,56.25
2019-05-16T04:23:07.340Z,56.25
2019-05-16T04:24:07.262Z,56.25
2019-05-16T04:25:07.349Z,56.25
2019-05-16T04:26:07.279Z,56.25
2019-05-16T04:27:07.336Z,61.88
2019-05-16T04:28:07.284Z,61.88
2019-05-16T04:29:07.208Z,61.88
2019-05-16T04:30:07.280Z,67.50
2019-05-16T04:31:07.207Z,67.50
2019-05-16T04:32:10.864Z,67.50
2019-05-16T04:33:07.205Z,67.50
2019-05-16T04:34:07.267Z,73.12
2019-05-16T04:35:07.150Z,73.12
2019-05-16T04:36:10.342Z,73.12
2019-05-16T04:37:07.131Z,78.75
2019-05-16T04:38:07.203Z,78.75
2019-05-16T04:39:07.159Z,78.75
2019-05-16T04:40:07.164Z,73.12
2019-05-16T04:41:07.082Z,73.12
2019-05-16T04:42:07.162Z,73.12
2019-05-16T04:43:07.067Z,67.50
2019-05-16T04:44:07.147Z,67.50
2019-05-16T04:45:07.040Z,67.50
2019-05-16T04:46:07.102Z,67.50
2019-05-16T04:47:07.044Z,67.50
2019-05-16T04:48:07.122Z,67.50
2019-05-16T04:49:07.988Z,67.50
2019-05-16T04:50:06.989Z,73.12
2019-05-16T04:51:10.559Z,73.12
2019-05-16T04:52:06.981Z,78.75
2019-05-16T04:53:07.089Z,84.38
2019-05-16T04:54:07.335Z,90.00
2019-05-16T04:55:06.932Z,90.00
2019-05-16T04:56:06.968Z,90.00
2019-05-16T04:57:07.033Z,90.00
2019-05-16T04:58:06.898Z,90.00
2019-05-16T04:59:07.051Z,90.00
2019-05-16T05:00:06.894Z,95.62
2019-05-16T05:01:06.889Z,95.62
2019-05-16T05:02:06.967Z,95.62
2019-05-16T05:03:06.876Z,95.62
2019-05-16T05:04:11.750Z,95.62
2019-05-16T05:05:07.873Z,95.62
2019-05-16T05:06:06.846Z,95.62
2019-05-16T05:07:06.859Z,101.25
2019-05-16T05:08:06.865Z,101.25
2019-05-16T05:09:06.786Z,101.25
2019-05-16T05:10:06.840Z,106.88
2019-05-16T05:11:06.839Z,106.88
2019-05-16T05:12:06.769Z,106.88
2019-05-16T05:13:06.879Z,106.88
2019-05-16T05:14:06.749Z,106.88
2019-05-16T05:15:06.774Z,106.88
2019-05-16T05:16:06.759Z,106.88
2019-05-16T05:17:06.726Z,106.88
2019-05-16T05:18:06.703Z,106.88
2019-05-16T05:19:07.736Z,112.50
2019-05-16T05:20:06.677Z,112.50
2019-05-16T05:21:06.778Z,118.12
2019-05-16T05:22:06.682Z,129.38
2019-05-16T05:23:06.723Z,129.38
2019-05-16T05:24:06.654Z,140.62
2019-05-16T05:25:06.693Z,146.25
2019-05-16T05:26:06.601Z,146.25
2019-05-16T05:27:06.723Z,151.88
2019-05-16T05:28:06.660Z,151.88
2019-05-16T05:29:06.577Z,151.88
2019-05-16T05:30:06.673Z,157.50
2019-05-16T05:31:06.568Z,163.12
2019-05-16T05:32:06.658Z,163.12
2019-05-16T05:33:06.539Z,168.75
2019-05-16T05:34:06.591Z,180.00
2019-05-16T05:35:06.499Z,180.00
2019-05-16T05:36:06.624Z,185.62
2019-05-16T05:37:06.530Z,185.62
2019-05-16T05:38:06.523Z,185.62
2019-05-16T05:39:11.970Z,185.62
2019-05-16T05:40:07.455Z,180.00
2019-05-16T05:41:06.543Z,180.00
2019-05-16T05:42:06.427Z,174.38
2019-05-16T05:43:06.598Z,180.00
2019-05-16T05:44:06.480Z,185.62
2019-05-16T05:45:07.490Z,191.25
2019-05-16T05:46:06.386Z,208.12
2019-05-16T05:47:06.479Z,219.38
2019-05-16T05:48:06.417Z,230.62
2019-05-16T05:49:06.404Z,241.88
2019-05-16T05:50:06.350Z,241.88
2019-05-16T05:51:06.477Z,236.25
2019-05-16T05:52:06.326Z,236.25
2019-05-16T05:53:06.416Z,241.88
2019-05-16T05:54:06.337Z,253.12
2019-05-16T05:55:06.294Z,264.38
2019-05-16T05:56:06.340Z,264.38
2019-05-16T05:57:06.367Z,270.00
2019-05-16T05:58:06.305Z,275.62
2019-05-16T05:59:06.361Z,281.25
2019-05-16T06:00:06.260Z,281.25
2019-05-16T06:01:06.230Z,286.88
2019-05-16T06:02:06.336Z,298.12
2019-05-16T06:03:06.230Z,303.75
2019-05-16T06:04:07.205Z,303.75
2019-05-16T06:05:06.200Z,309.38
2019-05-16T06:06:06.180Z,320.62
2019-05-16T06:07:06.210Z,331.88
2019-05-16T06:08:06.225Z,337.50
2019-05-16T06:09:06.215Z,331.88
2019-05-16T06:10:06.225Z,331.88
2019-05-16T06:11:06.124Z,326.25
2019-05-16T06:12:07.581Z,337.50
2019-05-16T06:13:06.168Z,348.75
2019-05-16T06:14:06.143Z,365.62
2019-05-16T06:15:09.019Z,382.50
2019-05-16T06:16:07.118Z,399.38
2019-05-16T06:17:06.073Z,410.62
2019-05-16T06:18:06.069Z,416.25
2019-05-16T06:19:06.117Z,421.88
2019-05-16T06:20:06.054Z,416.25
2019-05-16T06:21:06.173Z,421.88
2019-05-16T06:22:05.995Z,421.88
2019-05-16T06:23:06.020Z,405.00
2019-05-16T06:24:06.024Z,405.00
2019-05-16T06:25:06.013Z,405.00
2019-05-16T06:26:06.111Z,382.50
2019-05-16T06:27:05.957Z,365.62
2019-05-16T06:28:05.930Z,360.00
2019-05-16T06:29:05.984Z,360.00
2019-05-16T06:30:05.990Z,365.62
2019-05-16T06:31:05.914Z,365.62
2019-05-16T06:32:05.999Z,360.00
2019-05-16T06:33:05.924Z,365.62
2019-05-16T06:34:08.950Z,365.62
2019-05-16T06:35:06.869Z,382.50
2019-05-16T06:36:05.994Z,405.00
2019-05-16T06:37:05.845Z,427.50
2019-05-16T06:38:05.925Z,444.38
2019-05-16T06:39:05.952Z,472.50
2019-05-16T06:40:05.865Z,489.38
2019-05-16T06:41:05.916Z,506.25
2019-05-16T06:42:05.806Z,506.25
2019-05-16T06:43:05.872Z,506.25
2019-05-16T06:44:05.773Z,500.62
2019-05-16T06:45:05.805Z,495.00
2019-05-16T06:46:06.872Z,483.75
2019-05-16T06:47:16.943Z,478.12
2019-05-16T06:48:06.768Z,466.88
2019-05-16T06:49:05.794Z,461.25
2019-05-16T06:50:05.854Z,472.50
2019-05-16T06:51:05.699Z,483.75
2019-05-16T06:52:06.747Z,506.25
2019-05-16T06:53:05.699Z,511.88
2019-05-16T06:54:06.806Z,500.62
2019-05-16T06:55:05.666Z,478.12
2019-05-16T06:56:05.810Z,455.62
2019-05-16T06:57:05.682Z,433.12
2019-05-16T06:58:05.757Z,421.88
2019-05-16T06:59:05.642Z,410.62
2019-05-16T07:00:05.715Z,410.62
2019-05-16T07:01:05.657Z,410.62
2019-05-16T07:02:05.586Z,416.25
2019-05-16T07:03:05.696Z,416.25
2019-05-16T07:04:05.609Z,393.75
2019-05-16T07:05:05.590Z,382.50
2019-05-16T07:06:05.548Z,388.12
2019-05-16T07:07:05.621Z,405.00
2019-05-16T07:08:05.527Z,427.50
2019-05-16T07:09:05.582Z,438.75
2019-05-16T07:10:05.513Z,455.62
2019-05-16T07:11:05.530Z,455.62
2019-05-16T07:12:06.565Z,444.38
2019-05-16T07:13:05.477Z,455.62
2019-05-16T07:14:05.615Z,472.50
2019-05-16T07:15:05.471Z,489.38
2019-05-16T07:16:05.458Z,500.62
2019-05-16T07:17:05.434Z,511.88
2019-05-16T07:18:05.479Z,517.50
2019-05-16T07:19:05.499Z,523.12
2019-05-16T07:20:05.510Z,523.12
2019-05-16T07:21:05.389Z,528.75
2019-05-16T07:22:05.398Z,523.12
2019-05-16T07:23:05.370Z,517.50
2019-05-16T07:24:05.474Z,511.88
2019-05-16T07:25:05.400Z,489.38
2019-05-16T07:26:05.446Z,483.75
2019-05-16T07:27:05.320Z,472.50
2019-05-16T07:28:05.334Z,466.88
2019-05-16T07:29:05.339Z,472.50
2019-05-16T07:30:05.418Z,472.50
2019-05-16T07:31:15.010Z,478.12
2019-05-16T07:32:06.280Z,483.75
2019-05-16T07:33:05.372Z,472.50
2019-05-16T07:34:05.265Z,472.50
2019-05-16T07:35:05.366Z,489.38
2019-05-16T07:36:05.227Z,511.88
2019-05-16T07:37:05.351Z,523.12
2019-05-16T07:38:05.211Z,534.38
2019-05-16T07:39:05.237Z,545.62
2019-05-16T07:40:16.156Z,551.25
2019-05-16T07:41:06.180Z,562.50
2019-05-16T07:42:05.245Z,579.38
2019-05-16T07:43:05.171Z,596.25
2019-05-16T07:44:05.243Z,613.12
2019-05-16T07:45:05.176Z,618.75
2019-05-16T07:46:05.229Z,618.75
2019-05-16T07:47:05.120Z,613.12
2019-05-16T07:48:05.196Z,590.62
2019-05-16T07:49:05.121Z,556.88
2019-05-16T07:50:05.624Z,545.62
2019-05-16T07:51:05.121Z,528.75
2019-05-16T07:52:05.114Z,523.12
2019-05-16T07:53:05.057Z,511.88
2019-05-16T07:54:05.103Z,523.12
2019-05-16T07:55:05.054Z,534.38
2019-05-16T07:56:05.087Z,545.62
2019-05-16T07:57:16.174Z,551.25
2019-05-16T07:58:06.007Z,551.25
2019-05-16T07:59:05.113Z,540.00
2019-05-16T08:00:04.983Z,540.00
2019-05-16T08:01:09.166Z,540.00
2019-05-16T08:02:05.995Z,556.88
2019-05-16T08:03:05.979Z,585.00
2019-05-16T08:04:04.934Z,601.88
2019-05-16T08:05:04.974Z,613.12
2019-05-16T08:06:04.976Z,613.12
2019-05-16T08:07:05.818Z,618.75
2019-05-16T08:08:04.943Z,624.38
2019-05-16T08:09:07.636Z,652.50
2019-05-16T08:10:04.896Z,669.38
2019-05-16T08:11:04.915Z,691.88
2019-05-16T08:12:05.972Z,714.38
2019-05-16T08:13:04.841Z,720.00
2019-05-16T08:14:04.994Z,725.62
2019-05-16T08:15:04.837Z,720.00
2019-05-16T08:16:04.854Z,720.00
2019-05-16T08:17:04.844Z,720.00
2019-05-16T08:18:04.924Z,720.00
2019-05-16T08:19:04.774Z,720.00
2019-05-16T08:20:04.833Z,708.75
2019-05-16T08:21:04.767Z,703.12
2019-05-16T08:22:04.787Z,697.50
2019-05-16T08:23:04.733Z,691.88
2019-05-16T08:24:07.654Z,686.25
2019-05-16T08:25:04.788Z,686.25
2019-05-16T08:26:04.814Z,691.88
2019-05-16T08:27:04.708Z,691.88
2019-05-16T08:28:04.733Z,680.62
2019-05-16T08:29:04.683Z,686.25
2019-05-16T08:30:04.760Z,697.50
2019-05-16T08:31:04.698Z,703.12
2019-05-16T08:32:04.652Z,708.75
2019-05-16T08:33:04.626Z,708.75
2019-05-16T08:34:04.668Z,714.38
2019-05-16T08:35:04.756Z,708.75
2019-05-16T08:36:08.132Z,703.12
2019-05-16T08:37:05.612Z,714.38
2019-05-16T08:38:04.611Z,714.38
2019-05-16T08:39:04.597Z,714.38
2019-05-16T08:40:04.897Z,714.38
2019-05-16T08:42:08.422Z,703.12
2019-05-16T08:43:05.520Z,675.00
2019-05-16T08:44:04.549Z,658.12
2019-05-16T08:45:04.538Z,641.25
2019-05-16T08:46:04.611Z,601.88
2019-05-16T08:47:06.231Z,579.38
2019-05-16T08:48:04.578Z,596.25
2019-05-16T08:49:04.511Z,624.38
2019-05-16T08:50:04.478Z,624.38
2019-05-16T08:51:04.537Z,613.12
2019-05-16T08:52:05.568Z,641.25
2019-05-16T08:53:04.422Z,675.00
2019-05-16T08:54:04.496Z,652.50
2019-05-16T08:55:04.433Z,618.75
2019-05-16T08:56:04.390Z,590.62
2019-05-16T08:57:24.347Z,590.62
2019-05-16T08:58:05.363Z,618.75
2019-05-16T08:59:04.563Z,703.12
2019-05-16T09:00:04.349Z,770.62
2019-05-16T09:01:04.383Z,787.50
2019-05-16T09:02:04.361Z,781.88
2019-05-16T09:03:04.312Z,714.38
2019-05-16T09:04:04.416Z,697.50
2019-05-16T09:05:05.546Z,720.00
2019-05-16T09:06:05.281Z,714.38
2019-05-16T09:07:04.266Z,635.62
2019-05-16T09:08:04.374Z,551.25
2019-05-16T09:09:12.372Z,517.50
2019-05-16T09:10:10.285Z,517.50
2019-05-16T09:10:11.185Z,714.38
2019-05-16T09:12:07.721Z,534.38
2019-05-16T09:13:06.850Z,528.75
2019-05-16T09:14:04.245Z,528.75
2019-05-16T09:15:04.184Z,545.62
2019-05-16T09:16:04.296Z,579.38
2019-05-16T09:17:04.169Z,624.38
2019-05-16T09:18:07.256Z,613.12
2019-05-16T09:18:36.428Z,528.75
2019-05-16T09:19:04.211Z,624.38
2019-05-16T09:20:04.147Z,596.25
2019-05-16T09:21:07.146Z,568.12
2019-05-16T09:22:07.241Z,517.50
2019-05-16T09:23:04.123Z,472.50
2019-05-16T09:24:06.626Z,461.25
2019-05-16T09:25:04.157Z,461.25
2019-05-16T09:26:07.056Z,466.88
2019-05-16T09:27:10.746Z,472.50
2019-05-16T09:28:07.344Z,489.38
2019-05-16T09:29:04.036Z,556.88
2019-05-16T09:30:04.115Z,596.25
2019-05-16T09:31:04.019Z,585.00
2019-05-16T09:32:12.804Z,528.75
2019-05-16T09:33:07.078Z,511.88
2019-05-16T09:34:03.984Z,495.00
2019-05-16T09:35:03.983Z,478.12
2019-05-16T09:36:04.041Z,410.62
2019-05-16T09:37:04.017Z,348.75
2019-05-16T09:38:03.992Z,309.38
2019-05-16T09:39:03.931Z,292.50
2019-05-16T09:40:06.292Z,298.12
2019-05-16T09:41:04.082Z,315.00
2019-05-16T09:42:03.902Z,337.50
2019-05-16T09:43:03.927Z,382.50
2019-05-16T09:44:03.892Z,405.00
2019-05-16T09:45:03.879Z,421.88
2019-05-16T09:46:04.293Z,450.00
2019-05-16T09:47:03.852Z,450.00
2019-05-16T09:48:03.947Z,421.88
2019-05-16T09:49:16.627Z,438.75
2019-05-16T09:50:06.867Z,500.62
2019-05-16T09:51:06.460Z,590.62
2019-05-16T09:52:03.810Z,669.38
2019-05-16T09:53:03.892Z,680.62
2019-05-16T09:54:03.839Z,669.38
2019-05-16T09:55:03.812Z,680.62
2019-05-16T09:56:03.818Z,736.88
2019-05-16T09:57:03.757Z,843.75
2019-05-16T09:58:03.886Z,939.38
2019-05-16T09:59:03.718Z,1035.00
2019-05-16T10:00:06.787Z,1068.75
2019-05-16T10:01:03.702Z,1046.25
2019-05-16T10:02:03.862Z,1029.38
2019-05-16T10:03:03.689Z,1006.88
2019-05-16T10:04:06.522Z,911.25
2019-05-16T10:05:03.675Z,849.38
2019-05-16T10:06:03.796Z,787.50
2019-05-16T10:07:03.671Z,781.88
2019-05-16T10:08:03.628Z,787.50
2019-05-16T10:09:03.754Z,742.50
2019-05-16T10:10:03.609Z,691.88
2019-05-16T10:11:06.817Z,641.25
2019-05-16T10:12:11.384Z,601.88
2019-05-16T10:13:06.661Z,585.00
2019-05-16T10:14:10.243Z,590.62
2019-05-16T10:15:03.552Z,630.00
2019-05-16T10:16:03.766Z,669.38
2019-05-16T10:17:03.585Z,697.50
2019-05-16T10:18:03.516Z,708.75
2019-05-16T10:19:03.561Z,731.25
2019-05-16T10:20:07.622Z,736.88
2019-05-16T10:21:03.503Z,725.62
2019-05-16T10:22:07.142Z,742.50
2019-05-16T10:23:03.465Z,765.00
2019-05-16T10:24:03.642Z,731.25
2019-05-16T10:25:03.446Z,708.75
2019-05-16T10:26:03.562Z,691.88
2019-05-16T10:27:03.449Z,675.00
2019-05-16T10:28:03.575Z,652.50
2019-05-16T10:29:03.434Z,646.88
2019-05-16T10:30:03.485Z,641.25
2019-05-16T10:31:03.376Z,646.88
2019-05-16T10:32:03.498Z,652.50
2019-05-16T10:33:03.400Z,613.12
2019-05-16T10:34:03.426Z,534.38
2019-05-16T10:35:03.336Z,461.25
2019-05-16T10:36:03.436Z,438.75
2019-05-16T10:37:03.318Z,450.00
2019-05-16T10:38:03.510Z,461.25
2019-05-16T10:39:03.313Z,472.50
2019-05-16T10:40:03.282Z,472.50
2019-05-16T10:41:03.417Z,472.50
2019-05-16T10:42:03.265Z,433.12
2019-05-16T10:43:03.371Z,410.62
2019-05-16T10:44:03.252Z,399.38
2019-05-16T10:45:03.470Z,399.38
2019-05-16T10:46:03.234Z,393.75
2019-05-16T10:47:03.288Z,376.88
2019-05-16T10:48:03.197Z,365.62
2019-05-16T10:49:03.312Z,354.38
2019-05-16T10:50:03.214Z,337.50
2019-05-16T10:51:03.177Z,348.75
2019-05-16T10:52:03.169Z,354.38
2019-05-16T10:53:25.680Z,348.75
2019-05-16T10:54:13.213Z,343.12
2019-05-16T10:55:04.224Z,360.00
2019-05-16T10:56:03.171Z,376.88
2019-05-16T10:57:03.239Z,388.12
2019-05-16T10:58:03.205Z,388.12
2019-05-16T10:59:37.915Z,376.88
2019-05-16T11:00:12.405Z,371.25
2019-05-16T11:01:19.520Z,382.50
2019-05-16T11:02:04.116Z,393.75
2019-05-16T11:03:03.254Z,393.75
2019-05-16T11:04:03.105Z,376.88
2019-05-16T11:05:22.448Z,371.25
2019-05-16T11:06:08.397Z,371.25
2019-05-16T11:07:04.032Z,376.88
2019-05-16T11:08:03.587Z,393.75
2019-05-16T11:09:02.976Z,410.62
2019-05-16T11:10:03.797Z,427.50
2019-05-16T11:11:03.022Z,455.62
2019-05-16T11:12:03.094Z,483.75
2019-05-16T11:13:03.792Z,517.50
2019-05-16T11:14:02.916Z,540.00
2019-05-16T11:15:03.087Z,562.50
2019-05-16T11:16:02.933Z,585.00
2019-05-16T11:17:03.030Z,596.25
2019-05-16T11:18:02.947Z,618.75
2019-05-16T11:19:14.359Z,663.75
2019-05-16T11:20:03.873Z,742.50
2019-05-16T11:21:03.007Z,787.50
2019-05-16T11:22:02.860Z,826.88
2019-05-16T11:23:03.035Z,843.75
2019-05-16T11:24:02.832Z,826.88
2019-05-16T11:25:16.396Z,798.75
2019-05-16T11:26:03.840Z,781.88
2019-05-16T11:27:02.961Z,759.38
2019-05-16T11:28:02.771Z,736.88
2019-05-16T11:29:03.952Z,720.00
2019-05-16T11:30:02.763Z,720.00
2019-05-16T11:31:03.980Z,731.25
2019-05-16T11:32:02.771Z,776.25
2019-05-16T11:33:02.848Z,832.50
2019-05-16T11:34:02.740Z,866.25
2019-05-16T11:35:02.701Z,894.38
2019-05-16T11:36:02.705Z,922.50
2019-05-16T11:37:02.823Z,939.38
2019-05-16T11:38:02.672Z,945.00
2019-05-16T11:39:03.744Z,916.88
2019-05-16T11:40:02.658Z,843.75
2019-05-16T11:41:02.636Z,810.00
2019-05-16T11:42:02.613Z,832.50
2019-05-16T11:43:10.647Z,871.88
2019-05-16T11:44:03.648Z,905.62
2019-05-16T11:45:08.645Z,916.88
2019-05-16T11:46:03.637Z,866.25
2019-05-16T11:47:02.582Z,781.88
2019-05-16T11:48:02.773Z,720.00
2019-05-16T11:49:02.583Z,708.75
2019-05-16T11:50:03.624Z,753.75
2019-05-16T11:51:02.583Z,798.75
2019-05-16T11:52:02.590Z,748.12
2019-05-16T11:53:02.607Z,720.00
2019-05-16T11:54:02.496Z,753.75
2019-05-16T11:55:02.688Z,765.00
2019-05-16T11:56:02.494Z,720.00
2019-05-16T11:57:02.460Z,675.00
2019-05-16T11:58:02.513Z,635.62
2019-05-16T11:59:02.563Z,618.75
2019-05-16T12:00:02.462Z,579.38
2019-05-16T12:01:02.554Z,585.00
2019-05-16T12:02:02.429Z,652.50
2019-05-16T12:03:02.416Z,686.25
2019-05-16T12:04:02.477Z,697.50
2019-05-16T12:05:02.418Z,720.00
2019-05-16T12:06:02.562Z,776.25
2019-05-16T12:07:02.397Z,781.88
2019-05-16T12:08:02.424Z,759.38
2019-05-16T12:09:02.338Z,798.75
2019-05-16T12:10:02.436Z,877.50
2019-05-16T12:11:02.328Z,945.00
2019-05-16T12:12:04.074Z,950.62
2019-05-16T12:13:02.341Z,905.62
2019-05-16T12:14:02.460Z,860.62
2019-05-16T12:15:02.297Z,838.12
2019-05-16T12:16:02.452Z,781.88
2019-05-16T12:17:02.362Z,810.00
2019-05-16T12:18:05.190Z,843.75
2019-05-16T12:19:03.237Z,838.12
2019-05-16T12:20:02.378Z,770.62
2019-05-16T12:21:02.280Z,646.88
2019-05-16T12:22:02.389Z,556.88
2019-05-16T12:23:02.205Z,534.38
2019-05-16T12:24:02.312Z,523.12
2019-05-16T12:25:02.177Z,500.62
2019-05-16T12:26:03.345Z,472.50
2019-05-16T12:27:02.166Z,444.38
2019-05-16T12:28:02.294Z,427.50
2019-05-16T12:29:02.143Z,455.62
2019-05-16T12:30:02.399Z,483.75
2019-05-16T12:31:02.206Z,506.25
2019-05-16T12:32:03.094Z,506.25
2019-05-16T12:33:03.208Z,506.25
2019-05-16T12:34:02.120Z,528.75
2019-05-16T12:35:03.183Z,528.75
2019-05-16T12:36:02.054Z,506.25
2019-05-16T12:37:03.093Z,489.38
2019-05-16T12:38:02.049Z,461.25
2019-05-16T12:39:02.194Z,427.50
2019-05-16T12:40:02.141Z,416.25
2019-05-16T12:41:02.006Z,438.75
2019-05-16T12:42:02.036Z,466.88
2019-05-16T12:43:02.141Z,500.62
2019-05-16T12:44:01.987Z,545.62